createdAt,value
2022-12-20T00:00:04.170Z,16.10
2022-12-20T00:01:04.265Z,16.10
2022-12-20T00:02:04.286Z,15.80
2022-12-20T00:03:04.392Z,15.80
2022-12-20T00:04:04.387Z,15.80
2022-12-20T00:05:04.303Z,15.80
2022-12-20T00:06:04.202Z,15.80
2022-12-20T00:07:04.256Z,18.90
2022-12-20T00:08:03.928Z,18.90
2022-12-20T00:09:04.004Z,18.90
2022-12-20T00:10:03.941Z,18.90
2022-12-20T00:11:04.269Z,18.90
2022-12-20T00:12:04.445Z,17.60
2022-12-20T00:13:04.005Z,17.60
2022-12-20T00:14:04.146Z,17.60
2022-12-20T00:15:04.351Z,17.60
2022-12-20T00:16:03.920Z,17.60
2022-12-20T00:17:04.271Z,18.00
2022-12-20T00:18:04.335Z,18.00
2022-12-20T00:19:04.224Z,18.00
2022-12-20T00:20:04.472Z,18.00
2022-12-20T00:21:04.261Z,18.00
2022-12-20T00:22:03.815Z,15.20
2022-12-20T00:23:03.917Z,15.20
2022-12-20T00:24:04.239Z,15.20
2022-12-20T00:25:04.187Z,15.20
2022-12-20T00:26:03.921Z,15.20
2022-12-20T00:27:04.676Z,15.80
2022-12-20T00:28:04.271Z,15.80
2022-12-20T00:29:04.522Z,15.80
2022-12-20T00:30:04.637Z,15.80
2022-12-20T00:31:04.255Z,15.80
2022-12-20T00:32:03.987Z,18.90
2022-12-20T00:33:03.689Z,18.90
2022-12-20T00:34:04.191Z,18.90
2022-12-20T00:35:03.635Z,18.90
2022-12-20T00:36:03.652Z,18.90
2022-12-20T00:37:04.661Z,18.80
2022-12-20T00:38:04.439Z,18.80
2022-12-20T00:39:04.394Z,18.80
2022-12-20T00:40:04.268Z,18.80
2022-12-20T00:41:04.208Z,18.80
2022-12-20T00:42:03.744Z,20.50
2022-12-20T00:43:03.560Z,20.50
2022-12-20T00:44:03.606Z,20.50
2022-12-20T00:45:03.536Z,20.50
2022-12-20T00:46:03.978Z,20.50
2022-12-20T00:47:04.237Z,18.30
2022-12-20T00:48:03.540Z,18.30
2022-12-20T00:49:03.594Z,18.30
2022-12-20T00:50:03.729Z,18.30
2022-12-20T00:51:03.881Z,18.30
2022-12-20T00:52:04.653Z,18.30
2022-12-20T00:53:04.114Z,18.30
2022-12-20T00:54:04.564Z,18.30
2022-12-20T00:55:04.279Z,18.30
2022-12-20T00:56:04.154Z,18.30
2022-12-20T00:57:04.369Z,20.20
2022-12-20T00:58:04.384Z,20.20
2022-12-20T00:59:04.255Z,20.20
2022-12-20T01:00:04.522Z,20.20
2022-12-20T01:01:04.336Z,20.20
2022-12-20T01:02:05.253Z,20.10
2022-12-20T01:03:05.081Z,20.10
2022-12-20T01:04:04.601Z,20.10
2022-12-20T01:05:04.594Z,20.10
2022-12-20T01:06:05.004Z,20.10
2022-12-20T01:07:04.240Z,22.10
2022-12-20T01:08:04.426Z,22.10
2022-12-20T01:09:04.169Z,22.10
2022-12-20T01:10:04.323Z,22.10
2022-12-20T01:11:04.142Z,22.10
2022-12-20T01:12:04.803Z,17.80
2022-12-20T01:13:04.773Z,17.80
2022-12-20T01:14:04.827Z,17.80
2022-12-20T01:15:04.832Z,17.80
2022-12-20T01:16:04.463Z,17.80
2022-12-20T01:17:04.659Z,11.80
2022-12-20T01:18:04.819Z,11.80
2022-12-20T01:19:05.033Z,11.80
2022-12-20T01:20:05.013Z,11.80
2022-12-20T01:21:05.310Z,11.80
2022-12-20T01:22:05.207Z,10.90
2022-12-20T01:23:05.082Z,10.90
2022-12-20T01:24:05.226Z,10.90
2022-12-20T01:25:05.207Z,10.90
2022-12-20T01:26:05.209Z,10.90
2022-12-20T01:27:04.330Z,10.90
2022-12-20T01:28:04.234Z,10.90
2022-12-20T01:29:04.336Z,10.90
2022-12-20T01:30:04.648Z,10.90
2022-12-20T01:31:04.690Z,10.90
2022-12-20T01:32:05.036Z,11.70
2022-12-20T01:33:04.959Z,11.70
2022-12-20T01:34:04.951Z,11.70
2022-12-20T01:35:05.143Z,11.70
2022-12-20T01:36:05.160Z,11.70
2022-12-20T01:37:04.145Z,9.60
2022-12-20T01:38:04.326Z,9.60
2022-12-20T01:39:04.245Z,9.60
2022-12-20T01:40:04.603Z,9.60
2022-12-20T01:41:04.596Z,9.60
2022-12-20T01:42:04.679Z,13.30
2022-12-20T01:43:04.817Z,13.30
2022-12-20T01:44:04.789Z,13.30
2022-12-20T01:45:04.653Z,13.30
2022-12-20T01:46:04.824Z,13.30
2022-12-20T01:47:04.176Z,17.80
2022-12-20T01:48:04.306Z,17.80
2022-12-20T01:49:04.279Z,17.80
2022-12-20T01:50:04.349Z,17.80
2022-12-20T01:51:04.093Z,17.80
2022-12-20T01:52:04.532Z,13.70
2022-12-20T01:53:04.420Z,13.70
2022-12-20T01:54:04.239Z,13.70
2022-12-20T01:55:04.461Z,13.70
2022-12-20T01:56:04.469Z,13.70
2022-12-20T01:57:04.492Z,16.30
2022-12-20T01:58:04.730Z,16.30
2022-12-20T01:59:04.452Z,16.30
2022-12-20T02:00:04.493Z,16.30
2022-12-20T02:01:04.432Z,16.30
2022-12-20T02:02:03.433Z,13.40
2022-12-20T02:03:03.737Z,13.40
2022-12-20T02:04:03.362Z,13.40
2022-12-20T02:05:03.120Z,13.40
2022-12-20T02:06:03.121Z,13.40
2022-12-20T02:07:03.682Z,10.40
2022-12-20T02:08:03.608Z,10.40
2022-12-20T02:09:03.840Z,10.40
2022-12-20T02:10:03.849Z,10.40
2022-12-20T02:11:04.112Z,10.40
2022-12-20T02:12:03.946Z,11.60
2022-12-20T02:13:03.985Z,11.60
2022-12-20T02:14:04.156Z,11.60
2022-12-20T02:15:03.852Z,11.60
2022-12-20T02:16:03.810Z,11.60
2022-12-20T02:17:04.291Z,8.20
2022-12-20T02:18:04.179Z,8.20
2022-12-20T02:19:04.160Z,8.20
2022-12-20T02:20:04.020Z,8.20
2022-12-20T02:21:03.949Z,8.20
2022-12-20T02:22:03.588Z,9.80
2022-12-20T02:23:03.369Z,9.80
2022-12-20T02:24:03.697Z,9.80
2022-12-20T02:25:03.572Z,9.80
2022-12-20T02:26:03.554Z,9.80
2022-12-20T02:27:03.937Z,9.70
2022-12-20T02:28:04.149Z,9.70
2022-12-20T02:29:04.173Z,9.70
2022-12-20T02:30:04.078Z,9.70
2022-12-20T02:31:04.206Z,9.70
2022-12-20T02:32:04.006Z,8.30
2022-12-20T02:33:03.643Z,8.30
2022-12-20T02:34:04.128Z,8.30
2022-12-20T02:35:03.634Z,8.30
2022-12-20T02:36:03.959Z,8.30
2022-12-20T02:37:03.959Z,9.00
2022-12-20T02:38:03.818Z,9.00
2022-12-20T02:39:03.784Z,9.00
2022-12-20T02:40:03.867Z,9.00
2022-12-20T02:41:03.863Z,9.00
2022-12-20T02:42:03.524Z,10.60
2022-12-20T02:43:03.245Z,10.60
2022-12-20T02:44:03.123Z,10.60
2022-12-20T02:45:03.659Z,10.60
2022-12-20T02:46:03.835Z,10.60
2022-12-20T02:47:03.533Z,9.50
2022-12-20T02:48:03.719Z,9.50
2022-12-20T02:49:03.657Z,9.50
2022-12-20T02:50:03.651Z,9.50
2022-12-20T02:51:03.738Z,9.50
2022-12-20T02:52:03.567Z,9.00
2022-12-20T02:53:03.152Z,9.00
2022-12-20T02:54:03.099Z,9.00
2022-12-20T02:55:03.653Z,9.00
2022-12-20T02:56:03.591Z,9.00
2022-12-20T02:57:03.591Z,10.00
2022-12-20T02:58:03.283Z,10.00
2022-12-20T02:59:03.403Z,10.00
2022-12-20T03:00:03.097Z,10.00
2022-12-20T03:01:03.544Z,10.00
2022-12-20T03:02:04.467Z,8.30
2022-12-20T03:03:04.726Z,8.30
2022-12-20T03:04:04.492Z,8.30
2022-12-20T03:05:04.420Z,8.30
2022-12-20T03:06:04.438Z,8.30
2022-12-20T03:07:04.148Z,9.30
2022-12-20T03:08:04.150Z,9.30
2022-12-20T03:09:03.902Z,9.30
2022-12-20T03:10:04.033Z,9.30
2022-12-20T03:11:04.202Z,9.30
2022-12-20T03:12:04.135Z,8.80
2022-12-20T03:13:03.915Z,8.80
2022-12-20T03:14:04.064Z,8.80
2022-12-20T03:15:04.110Z,8.80
2022-12-20T03:16:04.078Z,8.80
2022-12-20T03:17:04.503Z,10.60
2022-12-20T03:18:04.782Z,10.60
2022-12-20T03:19:04.314Z,10.60
2022-12-20T03:20:04.641Z,10.60
2022-12-20T03:21:04.600Z,10.60
2022-12-20T03:22:03.804Z,11.10
2022-12-20T03:23:04.333Z,11.10
2022-12-20T03:24:03.855Z,11.10
2022-12-20T03:25:04.328Z,11.10
2022-12-20T03:26:04.407Z,11.10
2022-12-20T03:27:04.230Z,10.80
2022-12-20T03:28:03.560Z,10.80
2022-12-20T03:29:04.106Z,10.80
2022-12-20T03:30:03.659Z,10.80
2022-12-20T03:31:03.689Z,10.80
2022-12-20T03:32:04.305Z,9.30
2022-12-20T03:33:04.328Z,9.30
2022-12-20T03:34:04.358Z,9.30
2022-12-20T03:35:04.375Z,9.30
2022-12-20T03:36:04.338Z,9.30
2022-12-20T03:37:03.700Z,10.90
2022-12-20T03:38:03.694Z,10.90
2022-12-20T03:39:04.079Z,10.90
2022-12-20T03:41:03.636Z,10.90
2022-12-20T03:42:04.065Z,11.40
2022-12-20T03:43:04.099Z,11.40
2022-12-20T03:44:04.225Z,11.40
2022-12-20T03:45:04.092Z,11.40
2022-12-20T03:46:03.963Z,11.40
2022-12-20T03:47:04.712Z,12.10
2022-12-20T03:48:04.602Z,12.10
2022-12-20T03:49:04.637Z,12.10
2022-12-20T03:50:04.414Z,12.10
2022-12-20T03:51:04.481Z,12.10
2022-12-20T03:52:04.134Z,12.30
2022-12-20T03:53:04.107Z,12.30
2022-12-20T03:54:03.900Z,12.30
2022-12-20T03:55:03.485Z,12.30
2022-12-20T03:56:03.817Z,12.30
2022-12-20T03:57:03.922Z,10.50
2022-12-20T03:58:04.410Z,10.50
2022-12-20T03:59:04.411Z,10.50
2022-12-20T04:00:04.234Z,10.50
2022-12-20T04:01:04.458Z,10.50
2022-12-20T04:02:04.573Z,10.80
2022-12-20T04:03:04.825Z,10.80
2022-12-20T04:04:04.796Z,10.80
2022-12-20T04:05:04.517Z,10.80
2022-12-20T04:06:04.915Z,10.80
2022-12-20T04:07:04.466Z,12.00
2022-12-20T04:08:03.983Z,12.00
2022-12-20T04:09:04.530Z,12.00
2022-12-20T04:10:04.506Z,12.00
2022-12-20T04:11:04.344Z,12.00
2022-12-20T04:12:04.264Z,13.00
2022-12-20T04:13:04.185Z,13.00
2022-12-20T04:14:04.484Z,13.00
2022-12-20T04:15:04.543Z,13.00
2022-12-20T04:16:04.607Z,13.00
2022-12-20T04:17:04.537Z,13.90
2022-12-20T04:18:04.460Z,13.90
2022-12-20T04:19:04.547Z,13.90
2022-12-20T04:20:04.665Z,13.90
2022-12-20T04:21:04.709Z,13.90
2022-12-20T04:22:06.005Z,13.40
2022-12-20T04:23:04.142Z,13.40
2022-12-20T04:24:03.830Z,13.40
2022-12-20T04:25:03.839Z,13.40
2022-12-20T04:26:04.053Z,13.40
2022-12-20T04:27:04.335Z,10.50
2022-12-20T04:28:04.712Z,10.50
2022-12-20T04:29:04.347Z,10.50
2022-12-20T04:30:04.595Z,10.50
2022-12-20T04:31:04.523Z,10.50
2022-12-20T04:32:04.584Z,11.30
2022-12-20T04:33:05.052Z,11.30
2022-12-20T04:34:04.549Z,11.30
2022-12-20T04:35:04.775Z,11.30
2022-12-20T04:36:04.884Z,11.30
2022-12-20T04:37:04.051Z,12.00
2022-12-20T04:38:04.222Z,12.00
2022-12-20T04:39:04.199Z,12.00
2022-12-20T04:40:04.129Z,12.00
2022-12-20T04:41:04.130Z,12.00
2022-12-20T04:42:04.606Z,15.80
2022-12-20T04:43:04.709Z,15.80
2022-12-20T04:44:04.782Z,15.80
2022-12-20T04:45:04.661Z,15.80
2022-12-20T04:46:04.761Z,15.80
2022-12-20T04:47:04.595Z,15.40
2022-12-20T04:48:28.669Z,15.40
2022-12-20T04:49:04.548Z,15.40
2022-12-20T04:50:04.226Z,15.40
2022-12-20T04:51:04.306Z,15.40
2022-12-20T04:52:04.027Z,14.70
2022-12-20T04:53:04.391Z,14.70
2022-12-20T04:54:04.464Z,14.70
2022-12-20T04:55:04.572Z,14.70
2022-12-20T04:56:04.473Z,14.70
2022-12-20T04:57:04.397Z,17.10
2022-12-20T04:58:07.749Z,17.10
2022-12-20T04:59:04.608Z,17.10
2022-12-20T05:00:04.490Z,17.10
2022-12-20T05:01:04.272Z,17.10
2022-12-20T05:02:04.965Z,13.50
2022-12-20T05:03:05.296Z,13.50
2022-12-20T05:04:05.208Z,13.50
2022-12-20T05:05:05.210Z,13.50
2022-12-20T05:06:05.136Z,13.50
2022-12-20T05:07:04.016Z,14.50
2022-12-20T05:08:03.671Z,14.50
2022-12-20T05:09:04.191Z,14.50
2022-12-20T05:10:04.174Z,14.50
2022-12-20T05:11:04.124Z,14.50
2022-12-20T05:12:04.180Z,15.00
2022-12-20T05:13:08.983Z,15.00
2022-12-20T05:14:04.186Z,15.00
2022-12-20T05:15:04.092Z,15.00
2022-12-20T05:16:04.058Z,15.00
2022-12-20T05:17:04.225Z,14.80
2022-12-20T05:18:03.985Z,14.80
2022-12-20T05:19:04.392Z,14.80
2022-12-20T05:20:04.175Z,14.80
2022-12-20T05:21:03.888Z,14.80
2022-12-20T05:22:04.228Z,14.70
2022-12-20T05:23:04.038Z,14.70
2022-12-20T05:24:04.130Z,14.70
2022-12-20T05:25:04.276Z,14.70
2022-12-20T05:26:04.487Z,14.70
2022-12-20T05:27:04.491Z,14.90
2022-12-20T05:28:03.871Z,14.90
2022-12-20T05:29:04.541Z,14.90
2022-12-20T05:30:04.202Z,14.90
2022-12-20T05:31:03.981Z,14.90
2022-12-20T05:32:04.539Z,12.20
2022-12-20T05:33:04.530Z,12.20
2022-12-20T05:34:04.584Z,12.20
2022-12-20T05:35:04.564Z,12.20
2022-12-20T05:36:04.624Z,12.20
2022-12-20T05:37:04.192Z,14.60
2022-12-20T05:38:04.373Z,14.60
2022-12-20T05:39:04.847Z,14.60
2022-12-20T05:40:04.473Z,14.60
2022-12-20T05:41:04.422Z,14.60
2022-12-20T05:42:04.057Z,11.60
2022-12-20T05:43:03.958Z,11.60
2022-12-20T05:44:04.167Z,11.60
2022-12-20T05:45:03.876Z,11.60
2022-12-20T05:46:04.130Z,11.60
2022-12-20T05:47:04.165Z,15.00
2022-12-20T05:48:04.303Z,15.00
2022-12-20T05:49:04.362Z,15.00
2022-12-20T05:50:04.469Z,15.00
2022-12-20T05:51:04.279Z,15.00
2022-12-20T05:52:04.862Z,16.40
2022-12-20T05:53:11.366Z,16.40
2022-12-20T05:54:04.993Z,16.40
2022-12-20T05:55:04.509Z,16.40
2022-12-20T05:56:04.848Z,16.40
2022-12-20T05:57:04.529Z,15.20
2022-12-20T05:58:04.225Z,15.20
2022-12-20T05:59:04.220Z,15.20
2022-12-20T06:00:04.739Z,15.20
2022-12-20T06:01:04.700Z,15.20
2022-12-20T06:02:03.697Z,14.20
2022-12-20T06:03:03.507Z,14.20
2022-12-20T06:04:03.622Z,14.20
2022-12-20T06:05:03.461Z,14.20
2022-12-20T06:06:06.014Z,14.20
2022-12-20T06:07:03.802Z,15.10
2022-12-20T06:08:04.039Z,15.10
2022-12-20T06:09:03.888Z,15.10
2022-12-20T06:10:04.119Z,15.10
2022-12-20T06:11:03.869Z,15.10
2022-12-20T06:12:04.367Z,13.80
2022-12-20T06:13:04.143Z,13.80
2022-12-20T06:14:04.252Z,13.80
2022-12-20T06:15:04.208Z,13.80
2022-12-20T06:16:04.289Z,13.80
2022-12-20T06:17:03.895Z,11.90
2022-12-20T06:18:03.371Z,11.90
2022-12-20T06:19:03.593Z,11.90
2022-12-20T06:20:03.837Z,11.90
2022-12-20T06:21:03.400Z,11.90
2022-12-20T06:22:03.748Z,9.40
2022-12-20T06:23:03.792Z,9.40
2022-12-20T06:24:03.806Z,9.40
2022-12-20T06:25:03.599Z,9.40
2022-12-20T06:26:03.808Z,9.40
2022-12-20T06:27:03.971Z,9.10
2022-12-20T06:28:04.175Z,9.10
2022-12-20T06:29:04.348Z,9.10
2022-12-20T06:30:04.391Z,9.10
2022-12-20T06:31:04.030Z,9.10
2022-12-20T06:32:04.051Z,8.60
2022-12-20T06:33:03.716Z,8.60
2022-12-20T06:34:03.650Z,8.60
2022-12-20T06:35:03.973Z,8.60
2022-12-20T06:36:03.409Z,8.60
2022-12-20T06:37:04.527Z,9.40
2022-12-20T06:38:03.858Z,9.40
2022-12-20T06:39:09.371Z,9.40
2022-12-20T06:40:04.539Z,9.40
2022-12-20T06:41:03.957Z,9.40
2022-12-20T06:42:03.378Z,11.60
2022-12-20T06:43:03.398Z,11.60
2022-12-20T06:44:03.447Z,11.60
2022-12-20T06:45:03.156Z,11.60
2022-12-20T06:46:03.683Z,11.60
2022-12-20T06:47:02.979Z,25.90
2022-12-20T06:48:03.548Z,25.90
2022-12-20T06:49:03.093Z,25.90
2022-12-20T06:50:03.041Z,25.90
2022-12-20T06:51:03.340Z,25.90
2022-12-20T06:52:03.519Z,19.80
2022-12-20T06:53:03.667Z,19.80
2022-12-20T06:54:04.005Z,19.80
2022-12-20T06:55:04.061Z,19.80
2022-12-20T06:56:03.511Z,19.80
2022-12-20T06:57:04.146Z,21.50
2022-12-20T06:58:04.064Z,21.50
2022-12-20T06:59:04.251Z,21.50
2022-12-20T07:00:04.257Z,21.50
2022-12-20T07:01:04.245Z,21.50
2022-12-20T07:02:05.478Z,10.90
2022-12-20T07:03:04.477Z,10.90
2022-12-20T07:04:04.894Z,10.90
2022-12-20T07:05:04.979Z,10.90
2022-12-20T07:06:04.989Z,10.90
2022-12-20T07:07:04.088Z,14.10
2022-12-20T07:08:04.028Z,14.10
2022-12-20T07:09:04.182Z,14.10
2022-12-20T07:10:04.138Z,14.10
2022-12-20T07:11:04.100Z,14.10
2022-12-20T07:12:04.355Z,16.10
2022-12-20T07:13:04.681Z,16.10
2022-12-20T07:14:04.294Z,16.10
2022-12-20T07:15:04.368Z,16.10
2022-12-20T07:16:04.277Z,16.10
2022-12-20T07:17:04.655Z,17.60
2022-12-20T07:18:04.790Z,17.60
2022-12-20T07:19:04.787Z,17.60
2022-12-20T07:20:10.821Z,17.60
2022-12-20T07:21:04.717Z,17.60
2022-12-20T07:22:04.416Z,16.10
2022-12-20T07:23:03.911Z,16.10
2022-12-20T07:24:03.837Z,16.10
2022-12-20T07:25:04.283Z,16.10
2022-12-20T07:26:04.182Z,16.10
2022-12-20T07:27:04.042Z,17.20
2022-12-20T07:28:04.015Z,17.20
2022-12-20T07:29:04.077Z,17.20
2022-12-20T07:30:04.331Z,17.20
2022-12-20T07:31:04.273Z,17.20
2022-12-20T07:32:03.777Z,16.60
2022-12-20T07:33:03.726Z,16.60
2022-12-20T07:34:03.947Z,16.60
2022-12-20T07:35:03.765Z,16.60
2022-12-20T07:36:03.766Z,16.60
2022-12-20T07:37:03.792Z,16.30
2022-12-20T07:38:03.807Z,16.30
2022-12-20T07:39:04.012Z,16.30
2022-12-20T07:40:03.685Z,16.30
2022-12-20T07:41:03.770Z,16.30
2022-12-20T07:42:03.912Z,14.90
2022-12-20T07:43:04.156Z,14.90
2022-12-20T07:44:03.829Z,14.90
2022-12-20T07:45:03.855Z,14.90
2022-12-20T07:46:03.876Z,14.90
2022-12-20T07:47:04.429Z,18.30
2022-12-20T07:48:11.159Z,18.30
2022-12-20T07:49:04.674Z,18.30
2022-12-20T07:50:04.548Z,18.30
2022-12-20T07:51:04.863Z,18.30
2022-12-20T07:52:04.106Z,17.60
2022-12-20T07:53:03.795Z,17.60
2022-12-20T07:54:03.818Z,17.60
2022-12-20T07:55:04.121Z,17.60
2022-12-20T07:56:03.951Z,17.60
2022-12-20T07:57:04.508Z,12.00
2022-12-20T07:58:04.183Z,12.00
2022-12-20T07:59:04.561Z,12.00
2022-12-20T08:00:04.561Z,12.00
2022-12-20T08:01:04.703Z,12.00
2022-12-20T08:02:05.338Z,10.80
2022-12-20T08:03:04.844Z,10.80
2022-12-20T08:04:05.107Z,10.80
2022-12-20T08:05:04.741Z,10.80
2022-12-20T08:06:04.892Z,10.80
2022-12-20T08:07:04.947Z,11.80
2022-12-20T08:08:04.964Z,11.80
2022-12-20T08:09:05.255Z,11.80
2022-12-20T08:10:04.820Z,11.80
2022-12-20T08:11:04.885Z,11.80
2022-12-20T08:12:04.998Z,13.40
2022-12-20T08:13:04.950Z,13.40
2022-12-20T08:14:05.204Z,13.40
2022-12-20T08:15:05.104Z,13.40
2022-12-20T08:16:05.056Z,13.40
2022-12-20T08:17:04.470Z,13.60
2022-12-20T08:18:04.456Z,13.60
2022-12-20T08:19:05.033Z,13.60
2022-12-20T08:20:04.348Z,13.60
2022-12-20T08:21:04.435Z,13.60
2022-12-20T08:22:04.670Z,10.60
2022-12-20T08:23:04.575Z,10.60
2022-12-20T08:24:04.648Z,10.60
2022-12-20T08:25:04.498Z,10.60
2022-12-20T08:26:04.500Z,10.60
2022-12-20T08:27:03.966Z,10.80
2022-12-20T08:28:04.206Z,10.80
2022-12-20T08:29:04.335Z,10.80
2022-12-20T08:30:04.381Z,10.80
2022-12-20T08:31:04.260Z,10.80
2022-12-20T08:32:04.519Z,11.40
2022-12-20T08:33:04.632Z,11.40
2022-12-20T08:34:04.129Z,11.40
2022-12-20T08:35:04.193Z,11.40
2022-12-20T08:36:04.239Z,11.40
2022-12-20T08:37:10.656Z,12.10
2022-12-20T08:38:04.799Z,12.10
2022-12-20T08:39:04.190Z,12.10
2022-12-20T08:40:04.599Z,12.10
2022-12-20T08:41:04.608Z,12.10
2022-12-20T08:42:04.780Z,17.80
2022-12-20T08:43:09.979Z,17.80
2022-12-20T08:44:04.991Z,17.80
2022-12-20T08:45:04.483Z,17.80
2022-12-20T08:46:04.596Z,17.80
2022-12-20T08:47:04.683Z,13.70
2022-12-20T08:48:04.956Z,13.70
2022-12-20T08:49:04.619Z,13.70
2022-12-20T08:50:04.756Z,13.70
2022-12-20T08:51:04.611Z,13.80
2022-12-20T08:52:04.528Z,13.80
2022-12-20T08:53:04.021Z,13.80
2022-12-20T08:54:04.516Z,13.80
2022-12-20T08:55:05.189Z,13.80
2022-12-20T08:56:04.298Z,7.50
2022-12-20T08:57:05.205Z,7.50
2022-12-20T08:58:05.298Z,7.50
2022-12-20T08:59:05.172Z,7.50
2022-12-20T09:00:04.737Z,7.50
2022-12-20T09:01:06.714Z,11.80
2022-12-20T09:02:04.064Z,11.80
2022-12-20T09:03:03.610Z,11.80
2022-12-20T09:04:03.811Z,11.80
2022-12-20T09:05:03.816Z,11.80
2022-12-20T09:06:03.836Z,14.30
2022-12-20T09:07:04.035Z,14.30
2022-12-20T09:08:04.089Z,14.30
2022-12-20T09:09:03.589Z,14.30
2022-12-20T09:10:03.775Z,14.30
2022-12-20T09:11:03.522Z,11.50
2022-12-20T09:12:04.207Z,11.50
2022-12-20T09:13:04.109Z,11.50
2022-12-20T09:14:04.317Z,11.50
2022-12-20T09:15:03.681Z,11.50
2022-12-20T09:16:03.967Z,13.80
2022-12-20T09:17:03.760Z,13.80
2022-12-20T09:18:03.217Z,13.80
2022-12-20T09:19:06.105Z,13.80
2022-12-20T09:20:03.740Z,13.80
2022-12-20T09:21:03.166Z,13.10
2022-12-20T09:22:04.273Z,13.10
2022-12-20T09:23:04.075Z,13.10
2022-12-20T09:24:04.223Z,13.10
2022-12-20T09:25:04.195Z,13.10
2022-12-20T09:26:03.670Z,12.60
2022-12-20T09:27:03.534Z,12.60
2022-12-20T09:28:03.600Z,12.60
2022-12-20T09:29:03.547Z,12.60
2022-12-20T09:30:03.563Z,12.60
2022-12-20T09:31:03.898Z,11.60
2022-12-20T09:32:04.009Z,11.60
2022-12-20T09:33:07.992Z,11.60
2022-12-20T09:34:03.943Z,11.60
2022-12-20T09:35:03.640Z,11.60
2022-12-20T09:36:03.800Z,11.10
2022-12-20T09:37:03.498Z,11.10
2022-12-20T09:38:03.784Z,11.10
2022-12-20T09:39:03.923Z,11.10
2022-12-20T09:40:04.029Z,11.10
2022-12-20T09:41:03.888Z,13.00
2022-12-20T09:42:03.072Z,13.00
2022-12-20T09:43:03.448Z,13.00
2022-12-20T09:44:03.588Z,13.00
2022-12-20T09:45:03.039Z,13.00
2022-12-20T09:46:03.509Z,15.00
2022-12-20T09:47:10.033Z,15.00
2022-12-20T09:48:03.931Z,15.00
2022-12-20T09:49:03.978Z,15.00
2022-12-20T09:50:03.868Z,15.00
2022-12-20T09:51:04.305Z,14.90
2022-12-20T09:52:03.402Z,14.90
2022-12-20T09:53:03.251Z,14.90
2022-12-20T09:54:03.603Z,14.90
2022-12-20T09:55:03.730Z,14.90
2022-12-20T09:56:03.737Z,14.30
2022-12-20T09:57:03.996Z,14.30
2022-12-20T09:58:03.996Z,14.30
2022-12-20T09:59:03.948Z,14.30
2022-12-20T10:00:03.952Z,14.30
2022-12-20T10:01:04.055Z,14.30
2022-12-20T10:02:19.461Z,14.30
2022-12-20T10:03:09.954Z,14.30
2022-12-20T10:04:04.178Z,14.30
2022-12-20T10:05:03.620Z,14.30
2022-12-20T10:06:03.886Z,12.90
2022-12-20T10:07:03.848Z,12.90
2022-12-20T10:08:04.348Z,12.90
2022-12-20T10:09:03.762Z,12.90
2022-12-20T10:10:04.133Z,12.90
2022-12-20T10:11:04.241Z,13.80
2022-12-20T10:12:03.404Z,13.80
2022-12-20T10:13:03.566Z,13.80
2022-12-20T10:14:03.294Z,13.80
2022-12-20T10:15:03.652Z,13.80
2022-12-20T10:16:03.603Z,15.30
2022-12-20T10:17:03.637Z,15.30
2022-12-20T10:18:03.715Z,15.30
2022-12-20T10:19:03.779Z,15.30
2022-12-20T10:20:03.762Z,15.30
2022-12-20T10:21:03.511Z,14.50
2022-12-20T10:22:04.203Z,14.50
2022-12-20T10:23:04.116Z,14.50
2022-12-20T10:24:04.545Z,14.50
2022-12-20T10:25:04.324Z,14.50
2022-12-20T10:26:04.389Z,14.50
2022-12-20T10:27:03.779Z,14.50
2022-12-20T10:28:03.983Z,14.50
2022-12-20T10:29:03.727Z,14.50
2022-12-20T10:30:03.858Z,14.50
2022-12-20T10:31:04.065Z,15.60
2022-12-20T10:32:04.057Z,15.60
2022-12-20T10:33:03.785Z,15.60
2022-12-20T10:34:04.258Z,15.60
2022-12-20T10:35:04.194Z,15.60
2022-12-20T10:36:04.256Z,16.40
2022-12-20T10:37:03.653Z,16.40
2022-12-20T10:38:08.438Z,16.40
2022-12-20T10:39:03.947Z,16.40
2022-12-20T10:40:07.535Z,16.40
2022-12-20T10:41:21.401Z,17.30
2022-12-20T10:42:03.950Z,17.30
2022-12-20T10:43:03.601Z,17.30
2022-12-20T10:44:04.055Z,17.30
2022-12-20T10:45:04.172Z,17.30
2022-12-20T10:46:04.284Z,17.70
2022-12-20T10:47:03.696Z,17.70
2022-12-20T10:48:03.661Z,17.70
2022-12-20T10:49:03.436Z,17.70
2022-12-20T10:50:03.643Z,17.70
2022-12-20T10:51:03.778Z,13.70
2022-12-20T10:52:04.062Z,13.70
2022-12-20T10:53:03.738Z,13.70
2022-12-20T10:54:04.276Z,13.70
2022-12-20T10:55:04.041Z,13.70
2022-12-20T10:56:03.839Z,16.10
2022-12-20T10:57:03.766Z,16.10
2022-12-20T10:58:03.860Z,16.10
2022-12-20T10:59:03.451Z,16.10
2022-12-20T11:00:03.775Z,16.10
2022-12-20T11:01:03.923Z,16.30
2022-12-20T11:02:04.532Z,16.30
2022-12-20T11:03:04.300Z,16.30
2022-12-20T11:04:04.502Z,16.30
2022-12-20T11:05:04.042Z,16.30
2022-12-20T11:06:04.271Z,14.00
2022-12-20T11:07:03.900Z,14.00
2022-12-20T11:09:03.653Z,14.00
2022-12-20T11:10:03.852Z,14.00
2022-12-20T11:11:03.687Z,15.60
2022-12-20T11:12:04.407Z,15.60
2022-12-20T11:13:04.185Z,15.60
2022-12-20T11:14:04.503Z,15.60
2022-12-20T11:15:04.517Z,15.60
2022-12-20T11:16:04.012Z,16.60
2022-12-20T11:17:03.842Z,16.60
2022-12-20T11:18:03.896Z,16.60
2022-12-20T11:19:03.404Z,16.60
2022-12-20T11:20:03.944Z,16.60
2022-12-20T11:21:03.399Z,16.20
2022-12-20T11:22:04.321Z,16.20
2022-12-20T11:23:03.997Z,16.20
2022-12-20T11:24:04.026Z,16.20
2022-12-20T11:25:04.074Z,16.20
2022-12-20T11:26:04.136Z,16.70
2022-12-20T11:27:04.389Z,16.70
2022-12-20T11:28:03.849Z,16.70
2022-12-20T11:29:04.126Z,16.70
2022-12-20T11:30:03.910Z,16.70
2022-12-20T11:31:04.244Z,15.10
2022-12-20T11:32:04.035Z,15.10
2022-12-20T11:33:03.820Z,15.10
2022-12-20T11:34:03.582Z,15.10
2022-12-20T11:35:03.717Z,15.10
2022-12-20T11:36:03.426Z,13.70
2022-12-20T11:37:04.469Z,13.70
2022-12-20T11:38:09.281Z,13.70
2022-12-20T11:39:04.060Z,13.70
2022-12-20T11:40:04.295Z,13.70
2022-12-20T11:41:04.477Z,14.40
2022-12-20T11:42:04.571Z,14.40
2022-12-20T11:43:04.170Z,14.40
2022-12-20T11:44:28.202Z,14.40
2022-12-20T11:45:09.694Z,14.40
2022-12-20T11:46:04.604Z,11.20
2022-12-20T11:47:03.667Z,11.20
2022-12-20T11:48:03.931Z,11.20
2022-12-20T11:49:04.074Z,11.20
2022-12-20T11:50:04.162Z,11.20
2022-12-20T11:51:03.612Z,13.10
2022-12-20T11:52:04.072Z,13.10
2022-12-20T11:53:03.280Z,13.10
2022-12-20T11:54:03.765Z,13.10
2022-12-20T11:55:03.717Z,13.10
2022-12-20T11:56:03.224Z,11.80
2022-12-20T11:57:03.466Z,11.80
2022-12-20T11:58:20.143Z,11.80
2022-12-20T11:59:03.860Z,11.80
2022-12-20T12:00:04.120Z,11.80
2022-12-20T12:01:04.208Z,9.70
2022-12-20T12:02:03.830Z,9.70
2022-12-20T12:03:04.202Z,9.70
2022-12-20T12:04:03.995Z,9.70
2022-12-20T12:05:04.255Z,9.70
2022-12-20T12:06:03.956Z,11.30
2022-12-20T12:07:04.229Z,11.30
2022-12-20T12:08:03.701Z,11.30
2022-12-20T12:09:03.921Z,11.30
2022-12-20T12:10:03.530Z,11.30
2022-12-20T12:11:03.760Z,15.90
2022-12-20T12:12:07.131Z,15.90
2022-12-20T12:13:04.275Z,15.90
2022-12-20T12:14:04.292Z,15.90
2022-12-20T12:15:03.811Z,15.90
2022-12-20T12:16:04.404Z,9.80
2022-12-20T12:17:04.444Z,9.80
2022-12-20T12:18:03.752Z,9.80
2022-12-20T12:19:03.549Z,9.80
2022-12-20T12:20:04.009Z,9.80
2022-12-20T12:21:08.850Z,5.90
2022-12-20T12:22:03.967Z,5.90
2022-12-20T12:23:04.128Z,5.90
2022-12-20T12:24:04.451Z,5.90
2022-12-20T12:25:03.854Z,5.90
2022-12-20T12:26:04.301Z,7.80
2022-12-20T12:27:04.438Z,7.80
2022-12-20T12:28:04.290Z,7.80
2022-12-20T12:29:04.471Z,7.80
2022-12-20T12:30:04.605Z,7.80
2022-12-20T12:31:04.432Z,11.90
2022-12-20T12:32:05.073Z,11.90
2022-12-20T12:33:05.885Z,11.90
2022-12-20T12:34:04.308Z,11.90
2022-12-20T12:35:04.000Z,11.90
2022-12-20T12:36:04.561Z,7.80
2022-12-20T12:37:04.000Z,7.80
2022-12-20T12:38:04.121Z,7.80
2022-12-20T12:39:04.442Z,7.80
2022-12-20T12:40:04.404Z,7.80
2022-12-20T12:41:04.172Z,9.10
2022-12-20T12:42:04.142Z,9.10
2022-12-20T12:43:04.815Z,9.10
2022-12-20T12:44:04.896Z,9.10
2022-12-20T12:45:04.573Z,9.10
2022-12-20T12:46:08.380Z,10.20
2022-12-20T12:47:04.585Z,10.20
2022-12-20T12:48:03.568Z,10.20
2022-12-20T12:49:03.639Z,10.20
2022-12-20T12:50:03.941Z,10.20
2022-12-20T12:51:04.020Z,7.70
2022-12-20T12:52:03.552Z,7.70
2022-12-20T12:53:04.027Z,7.70
2022-12-20T12:54:02.786Z,7.70
2022-12-20T12:55:04.219Z,7.70
2022-12-20T12:56:34.529Z,8.00
2022-12-20T12:57:04.487Z,8.00
2022-12-20T12:58:04.551Z,8.00